Time;durP1;ratioP1;P1;durP2;ratioP2;P2;SDS_P1;SDS_P2;PMS_P1;PMS_P2;Temp;Humidity;BMP_temperature;BMP_pressure;BME280_temperature;BME280_humidity;BME280_pressure;Samples;Min_cycle;Max_cycle;Signal;HPM_P1;HPM_P2
2023/05/04 00:01:25;;;;;;;6.30;3.47;;;14.90;61.20;;;;;;3965975;29;20058;-55
2023/05/04 00:04:07;;;;;;;5.78;2.95;;;14.80;61.40;;;;;;3964865;29;20093;-62
2023/05/04 00:06:51;;;;;;;4.20;3.00;;;14.80;60.90;;;;;;3955733;29;20057;-62
2023/05/04 00:09:33;;;;;;;7.10;3.45;;;14.80;61.30;;;;;;3954938;29;20077;-54
2023/05/04 00:12:15;;;;;;;4.65;3.50;;;14.80;61.50;;;;;;3956883;29;20053;-55
2023/05/04 00:14:57;;;;;;;4.35;3.38;;;14.80;61.30;;;;;;3967342;29;20067;-53
2023/05/04 00:17:39;;;;;;;5.30;3.28;;;14.80;61.70;;;;;;3966408;29;20215;-55
2023/05/04 00:20:21;;;;;;;3.15;2.92;;;14.80;61.80;;;;;;3965472;29;20062;-54
2023/05/04 00:23:05;;;;;;;3.83;3.20;;;14.80;61.50;;;;;;3965000;29;20062;-55
2023/05/04 00:25:47;;;;;;;9.02;3.33;;;14.80;61.50;;;;;;3954412;29;20623;-55
2023/05/04 00:28:29;;;;;;;5.82;3.00;;;14.80;61.40;;;;;;3954447;29;20470;-52
2023/05/04 00:31:11;;;;;;;4.93;3.15;;;14.80;61.30;;;;;;3966027;29;20077;-54
2023/05/04 00:33:53;;;;;;;5.10;3.53;;;14.80;61.20;;;;;;3963700;29;20073;-61
2023/05/04 00:36:35;;;;;;;5.32;3.58;;;14.80;61.20;;;;;;3962043;29;20147;-62
2023/05/04 00:39:20;;;;;;;5.95;4.00;;;14.80;61.90;;;;;;3965129;29;20513;-61
2023/05/04 00:42:03;;;;;;;6.80;3.40;;;14.80;61.30;;;;;;3962481;29;20131;-62
2023/05/04 00:44:46;;;;;;;5.05;3.22;;;14.80;61.80;;;;;;3962888;29;20070;-60
2023/05/04 00:47:30;;;;;;;4.32;2.78;;;14.80;61.80;;;;;;3960319;29;20065;-61
2023/05/04 00:50:15;;;;;;;5.15;3.47;;;14.80;61.90;;;;;;3952804;29;20138;-62
2023/05/04 00:53:01;;;;;;;6.80;3.90;;;14.70;62.10;;;;;;3935791;29;20518;-62
2023/05/04 00:55:50;;;;;;;7.10;3.50;;;14.70;62.00;;;;;;3945545;29;20070;-56
2023/05/04 00:58:37;;;;;;;7.07;3.70;;;14.80;62.10;;;;;;3945526;29;20058;-54
2023/05/04 01:01:22;;;;;;;5.60;3.60;;;14.70;61.90;;;;;;3955333;29;20522;-54
2023/05/04 01:04:08;;;;;;;7.05;3.40;;;14.70;62.40;;;;;;3948769;29;20066;-54
2023/05/04 01:07:01;;;;;;;5.72;4.38;;;14.70;62.80;;;;;;3941871;29;20099;-54
2023/05/04 01:09:49;;;;;;;8.95;4.00;;;14.70;62.30;;;;;;3947031;29;20139;-55
2023/05/04 01:12:39;;;;;;;7.18;3.50;;;14.70;62.20;;;;;;3955948;29;20058;-55
2023/05/04 01:15:35;;;;;;;5.20;3.38;;;14.80;62.50;;;;;;3954390;29;20067;-61
2023/05/04 01:18:20;;;;;;;6.28;4.18;;;14.70;62.30;;;;;;3923165;29;20571;-51
2023/05/04 01:21:04;;;;;;;5.55;3.88;;;14.70;62.00;;;;;;3917387;30;20207;-55
2023/05/04 01:23:53;;;;;;;7.30;3.90;;;14.70;63.50;;;;;;3949243;29;20082;-56
2023/05/04 01:26:43;;;;;;;5.32;3.75;;;14.70;62.70;;;;;;3941195;29;20061;-52
2023/05/04 01:29:39;;;;;;;5.93;3.85;;;14.70;63.00;;;;;;3947930;29;20061;-55
2023/05/04 01:32:27;;;;;;;7.88;4.30;;;14.70;63.20;;;;;;3949124;29;20066;-55
2023/05/04 01:35:15;;;;;;;6.75;3.72;;;14.70;63.40;;;;;;3949829;29;20065;-56
2023/05/04 01:38:04;;;;;;;5.50;4.00;;;14.70;63.10;;;;;;3948673;29;20151;-54
2023/05/04 01:40:49;;;;;;;4.60;4.05;;;14.70;62.70;;;;;;3948944;29;20483;-55
2023/05/04 01:43:36;;;;;;;5.68;4.20;;;14.70;62.50;;;;;;3939476;29;20058;-55
2023/05/04 01:46:22;;;;;;;6.80;4.03;;;14.70;63.50;;;;;;3942901;29;20086;-55
2023/05/04 01:49:05;;;;;;;6.20;4.45;;;14.70;62.50;;;;;;3931712;29;20521;-55
2023/05/04 01:51:52;;;;;;;9.80;4.65;;;14.70;62.70;;;;;;3957392;29;20852;-56
2023/05/04 01:54:42;;;;;;;8.10;4.32;;;14.70;63.00;;;;;;3958378;29;20058;-56
2023/05/04 01:57:26;;;;;;;4.72;4.22;;;14.60;62.80;;;;;;3946910;29;20135;-61
2023/05/04 02:00:16;;;;;;;8.02;4.75;;;14.60;62.70;;;;;;3967857;29;20050;-61
2023/05/04 02:03:03;;;;;;;7.22;4.40;;;14.60;62.30;;;;;;3938730;29;20184;-61
2023/05/04 02:05:47;;;;;;;5.97;4.38;;;14.60;62.90;;;;;;3927599;29;20058;-61
2023/05/04 02:08:33;;;;;;;7.50;4.30;;;14.60;62.90;;;;;;3925881;29;20057;-61
2023/05/04 02:11:18;;;;;;;11.30;4.97;;;14.60;63.10;;;;;;3922027;29;20105;-61
2023/05/04 02:14:09;;;;;;;4.97;4.03;;;14.60;62.80;;;;;;3946638;29;20460;-60
2023/05/04 02:16:58;;;;;;;7.38;4.20;;;14.50;62.80;;;;;;3947656;29;20073;-62
2023/05/04 02:19:45;;;;;;;6.47;4.63;;;14.50;63.10;;;;;;3915482;29;20431;-57
2023/05/04 02:22:30;;;;;;;9.48;4.93;;;14.50;63.60;;;;;;3947611;29;20569;-61
2023/05/04 02:25:17;;;;;;;5.22;4.43;;;14.50;63.80;;;;;;3938366;29;20130;-55
2023/05/04 02:28:01;;;;;;;11.15;5.03;;;14.60;63.40;;;;;;3957883;29;20061;-53
2023/05/04 02:30:50;;;;;;;8.00;5.63;;;14.50;63.60;;;;;;3946694;29;20195;-53
2023/05/04 02:33:35;;;;;;;8.10;4.90;;;14.50;63.60;;;;;;3937745;29;20057;-53
2023/05/04 02:36:23;;;;;;;6.68;5.20;;;14.50;63.70;;;;;;3953636;29;20522;-53
2023/05/04 02:39:09;;;;;;;8.43;5.45;;;14.50;63.50;;;;;;3963310;29;20210;-61
2023/05/04 02:41:53;;;;;;;5.00;4.22;;;14.50;63.60;;;;;;3944023;29;20207;-61
2023/05/04 02:44:36;;;;;;;8.07;5.00;;;14.50;64.00;;;;;;3947152;29;20553;-61
2023/05/04 02:47:25;;;;;;;6.75;5.05;;;14.50;64.30;;;;;;3958563;29;20445;-62
2023/05/04 02:50:13;;;;;;;6.35;5.20;;;14.50;64.00;;;;;;3950271;29;20054;-51
2023/05/04 02:53:00;;;;;;;7.57;5.13;;;14.50;63.70;;;;;;3958109;29;20066;-54
2023/05/04 02:55:42;;;;;;;5.28;4.78;;;14.50;63.60;;;;;;3948177;29;20085;-53
2023/05/04 02:58:27;;;;;;;6.28;5.13;;;14.50;63.40;;;;;;3959544;29;20112;-51
2023/05/04 03:01:15;;;;;;;6.47;5.30;;;14.50;63.20;;;;;;3957025;29;20527;-52
2023/05/04 03:04:02;;;;;;;9.80;5.20;;;14.50;63.60;;;;;;3931644;29;20054;-54
2023/05/04 03:06:51;;;;;;;10.05;5.35;;;14.40;64.70;;;;;;3933076;29;20135;-51
2023/05/04 03:09:36;;;;;;;6.78;5.55;;;14.40;63.80;;;;;;3957980;29;20122;-51
2023/05/04 03:12:22;;;;;;;8.15;5.57;;;14.40;63.80;;;;;;3948703;29;20061;-53
2023/05/04 03:15:05;;;;;;;6.53;5.32;;;14.40;64.30;;;;;;3955273;29;20511;-52
2023/05/04 03:17:52;;;;;;;8.00;5.15;;;14.40;64.30;;;;;;3935896;29;20074;-54
2023/05/04 03:20:36;;;;;;;6.07;4.78;;;14.40;64.00;;;;;;3967605;29;20058;-51
2023/05/04 03:23:29;;;;;;;7.97;5.25;;;14.40;64.30;;;;;;3938684;29;20126;-62
2023/05/04 03:26:11;;;;;;;6.10;5.25;;;14.40;64.70;;;;;;3912982;29;20066;-62
2023/05/04 03:28:59;;;;;;;8.82;4.78;;;14.30;64.70;;;;;;3929709;29;20496;-61
2023/05/04 03:31:46;;;;;;;7.03;5.55;;;14.30;64.50;;;;;;3955555;29;20212;-61
2023/05/04 03:34:33;;;;;;;7.85;5.50;;;14.40;64.90;;;;;;3933370;29;20058;-61
2023/05/04 03:37:23;;;;;;;5.38;4.60;;;14.30;65.00;;;;;;3955711;29;20069;-61
2023/05/04 03:40:12;;;;;;;10.32;4.72;;;14.30;65.20;;;;;;3952695;29;20827;-54
2023/05/04 03:42:55;;;;;;;6.88;5.03;;;14.30;65.50;;;;;;3952218;29;20058;-53
2023/05/04 03:45:46;;;;;;;9.77;5.05;;;14.30;65.60;;;;;;3964952;29;20135;-53
2023/05/04 03:48:32;;;;;;;6.20;4.78;;;14.40;65.50;;;;;;3940311;29;20191;-61
2023/05/04 03:51:20;;;;;;;8.63;4.97;;;14.30;65.60;;;;;;3922538;29;20102;-62
2023/05/04 03:54:09;;;;;;;8.35;4.97;;;14.30;65.50;;;;;;3921523;29;20058;-52
2023/05/04 03:56:51;;;;;;;10.07;5.40;;;14.30;65.50;;;;;;3959132;29;20197;-54
2023/05/04 03:59:36;;;;;;;8.15;5.07;;;14.30;65.20;;;;;;3954578;29;20525;-51
2023/05/04 04:02:22;;;;;;;5.53;4.57;;;14.30;65.20;;;;;;3953037;29;20062;-54
2023/05/04 04:05:06;;;;;;;9.25;5.20;;;14.30;65.30;;;;;;3940754;29;20058;-54
2023/05/04 04:07:50;;;;;;;7.38;5.55;;;14.30;65.70;;;;;;3944011;29;20118;-54
2023/05/04 04:10:35;;;;;;;7.20;5.10;;;14.30;65.80;;;;;;3966111;29;20495;-53
2023/05/04 04:13:18;;;;;;;5.78;5.03;;;14.30;65.50;;;;;;3939536;29;20088;-55
2023/05/04 04:16:10;;;;;;;7.80;4.90;;;14.30;66.10;;;;;;3959810;29;20106;-51
2023/05/04 04:18:56;;;;;;;;;;;14.30;65.40;;;;;;3917524;30;20062;-54
2023/05/04 04:21:40;;;;;;;7.15;5.40;;;14.30;65.20;;;;;;3926822;30;19941;-54
2023/05/04 04:24:24;;;;;;;9.38;5.68;;;14.30;65.70;;;;;;3919810;29;20058;-52
2023/05/04 04:27:14;;;;;;;9.75;5.53;;;14.30;65.40;;;;;;3920476;30;20187;-51
2023/05/04 04:29:58;;;;;;;10.13;6.30;;;14.20;65.00;;;;;;3943321;29;20066;-51
2023/05/04 04:32:49;;;;;;;7.35;5.03;;;14.30;65.60;;;;;;3944603;29;20534;-51
2023/05/04 04:35:35;;;;;;;9.05;5.75;;;14.20;66.00;;;;;;3941491;29;20074;-53
2023/05/04 04:38:26;;;;;;;6.20;5.20;;;14.20;65.90;;;;;;3942411;29;20417;-53
2023/05/04 04:41:11;;;;;;;8.95;5.13;;;14.20;65.70;;;;;;3936166;29;20062;-54
2023/05/04 04:44:01;;;;;;;6.80;5.60;;;14.20;66.20;;;;;;3913291;29;20503;-55
2023/05/04 04:46:47;;;;;;;9.13;5.95;;;14.20;66.00;;;;;;3942964;29;20099;-61
2023/05/04 04:49:31;;;;;;;7.75;5.70;;;14.20;65.70;;;;;;3952200;29;20066;-62
2023/05/04 04:52:14;;;;;;;8.35;5.90;;;14.20;65.30;;;;;;3947594;29;20070;-62
2023/05/04 04:55:00;;;;;;;12.05;6.68;;;14.20;65.50;;;;;;3938339;29;20063;-62
2023/05/04 04:57:42;;;;;;;8.15;5.95;;;14.20;65.50;;;;;;3931838;30;20058;-62
2023/05/04 05:00:37;;;;;;;10.98;5.60;;;14.20;65.70;;;;;;3928259;30;20431;-62
2023/05/04 05:03:20;;;;;;;10.55;5.85;;;14.20;65.70;;;;;;3931290;30;20412;-62
2023/05/04 05:06:03;;;;;;;11.05;6.05;;;14.10;66.10;;;;;;3923752;30;20428;-53
2023/05/04 05:08:47;;;;;;;13.10;6.18;;;14.20;65.70;;;;;;3935027;29;20058;-51
2023/05/04 05:11:35;;;;;;;6.65;5.68;;;14.20;66.20;;;;;;3926374;29;20682;-55
2023/05/04 05:14:26;;;;;;;8.38;5.95;;;14.10;66.30;;;;;;3941993;29;20435;-56
2023/05/04 05:17:14;;;;;;;8.63;5.63;;;14.20;66.60;;;;;;3928258;29;20062;-61
2023/05/04 05:19:59;;;;;;;9.18;5.47;;;14.20;65.40;;;;;;3933445;29;20164;-61
2023/05/04 05:22:42;;;;;;;8.43;5.65;;;14.20;66.20;;;;;;3966537;29;20584;-62
2023/05/04 05:25:25;;;;;;;9.18;6.00;;;14.10;66.10;;;;;;3935321;29;20070;-62
2023/05/04 05:28:14;;;;;;;6.90;6.00;;;14.20;65.70;;;;;;3957463;29;20147;-61
2023/05/04 05:31:05;;;;;;;10.13;5.50;;;14.20;65.60;;;;;;3957018;29;20073;-55
2023/05/04 05:33:52;;;;;;;8.55;5.75;;;14.20;65.90;;;;;;3947790;29;20066;-51
2023/05/04 05:36:34;;;;;;;9.75;5.80;;;14.20;65.60;;;;;;3967124;29;20065;-50
2023/05/04 05:39:18;;;;;;;9.55;5.25;;;14.20;65.50;;;;;;3943769;29;20128;-49
2023/05/04 05:42:08;;;;;;;9.63;5.88;;;14.20;66.10;;;;;;3938097;29;20066;-51
2023/05/04 05:45:03;;;;;;;11.30;5.80;;;14.20;66.50;;;;;;3947865;29;20572;-55
2023/05/04 05:47:48;;;;;;;8.95;5.97;;;14.30;67.20;;;;;;3954723;29;20513;-49
2023/05/04 05:50:36;;;;;;;11.88;5.85;;;14.30;66.70;;;;;;3942677;29;20072;-52
2023/05/04 05:53:20;;;;;;;8.20;5.80;;;14.20;65.50;;;;;;3966956;29;20414;-53
2023/05/04 05:56:02;;;;;;;9.98;5.53;;;14.20;65.90;;;;;;3966857;29;20525;-49
2023/05/04 05:58:47;;;;;;;7.47;5.38;;;14.30;66.30;;;;;;3955685;29;20053;-51
2023/05/04 06:01:30;;;;;;;11.95;6.72;;;14.30;66.20;;;;;;3947442;29;20534;-59
2023/05/04 06:04:22;;;;;;;10.52;6.22;;;14.20;65.70;;;;;;3967100;29;20433;-51
2023/05/04 06:07:05;;;;;;;7.88;5.32;;;14.30;65.70;;;;;;3967708;29;20098;-51
2023/05/04 06:10:00;;;;;;;7.85;6.03;;;14.30;66.00;;;;;;3952441;29;20459;-53
2023/05/04 06:12:45;;;;;;;10.32;6.22;;;14.30;66.10;;;;;;3955180;29;20108;-61
2023/05/04 06:15:36;;;;;;;8.60;5.38;;;14.30;66.80;;;;;;3982147;29;20108;-53
2023/05/04 06:18:30;;;;;;;12.73;6.05;;;14.30;66.70;;;;;;3939194;29;20547;-61
2023/05/04 06:21:14;;;;;;;9.23;5.05;;;14.30;66.20;;;;;;3933348;29;20054;-61
2023/05/04 06:23:58;;;;;;;8.80;5.35;;;14.30;66.10;;;;;;3925656;29;20070;-60
2023/05/04 06:26:43;;;;;;;8.02;5.30;;;14.40;65.90;;;;;;3957540;29;20135;-61
2023/05/04 06:29:27;;;;;;;9.13;5.72;;;14.40;66.10;;;;;;3958570;29;20137;-60
2023/05/04 06:32:10;;;;;;;9.43;5.70;;;14.40;66.20;;;;;;3967137;29;20535;-61
2023/05/04 06:34:56;;;;;;;11.30;5.82;;;14.40;66.10;;;;;;3943324;29;20185;-61
2023/05/04 06:37:40;;;;;;;8.98;5.57;;;14.50;66.20;;;;;;3944339;29;20098;-61
2023/05/04 06:40:29;;;;;;;9.93;5.00;;;14.50;65.50;;;;;;3966290;29;20523;-61
2023/05/04 06:43:17;;;;;;;11.65;5.55;;;14.50;64.90;;;;;;3925803;29;20502;-60
2023/05/04 06:46:10;;;;;;;7.65;5.25;;;14.50;64.90;;;;;;3949316;29;20062;-61
2023/05/04 06:48:54;;;;;;;9.30;6.00;;;14.50;64.50;;;;;;3959769;29;20193;-61
2023/05/04 06:51:43;;;;;;;8.48;5.53;;;14.50;64.30;;;;;;3951540;29;20542;-61
2023/05/04 06:54:30;;;;;;;8.45;5.45;;;14.60;63.80;;;;;;3938905;29;20080;-60
2023/05/04 06:57:21;;;;;;;10.52;5.90;;;14.60;64.40;;;;;;3948748;29;20139;-51
2023/05/04 07:00:24;;;;;;;9.32;4.97;;;14.60;64.60;;;;;;3943706;29;20420;-53
2023/05/04 07:03:22;;;;;;;8.32;6.38;;;14.60;65.00;;;;;;3939305;29;20412;-53
2023/05/04 07:06:11;;;;;;;11.18;5.95;;;14.60;64.40;;;;;;3944824;29;20078;-52
2023/05/04 07:08:54;;;;;;;7.93;5.97;;;14.70;65.30;;;;;;3951095;29;20081;-54
2023/05/04 07:11:39;;;;;;;7.50;5.72;;;14.70;64.70;;;;;;3936345;29;20066;-53
2023/05/04 07:14:26;;;;;;;8.95;5.43;;;14.70;64.90;;;;;;3967397;29;20547;-54
2023/05/04 07:17:12;;;;;;;11.52;5.70;;;14.70;64.40;;;;;;3943643;29;20614;-53
2023/05/04 07:19:54;;;;;;;11.75;6.07;;;14.70;64.30;;;;;;3959333;29;20070;-53
2023/05/04 07:22:36;;;;;;;10.88;6.20;;;14.80;64.00;;;;;;3967692;29;20074;-59
2023/05/04 07:25:24;;;;;;;9.50;5.63;;;14.80;64.50;;;;;;3961248;29;20061;-52
2023/05/04 07:28:07;;;;;;;10.85;5.68;;;14.80;64.30;;;;;;3963844;29;20070;-62
2023/05/04 07:30:53;;;;;;;13.38;5.88;;;14.80;64.80;;;;;;3956165;29;20057;-61
2023/05/04 07:33:36;;;;;;;9.30;6.38;;;14.80;65.10;;;;;;3932222;29;20065;-60
2023/05/04 07:36:23;;;;;;;11.48;6.65;;;14.90;64.80;;;;;;3934389;29;20237;-53
2023/05/04 07:39:11;;;;;;;9.88;5.85;;;14.90;64.50;;;;;;3969475;29;20050;-53
2023/05/04 07:41:56;;;;;;;9.23;5.80;;;14.90;64.90;;;;;;3915460;29;20062;-60
2023/05/04 07:44:47;;;;;;;10.98;5.97;;;14.90;65.70;;;;;;3955419;29;20122;-60
2023/05/04 07:47:42;;;;;;;7.63;5.95;;;14.90;66.60;;;;;;3973205;29;20065;-55
2023/05/04 07:50:25;;;;;;;8.35;5.60;;;15.00;66.90;;;;;;3966359;29;20513;-53
2023/05/04 07:53:11;;;;;;;10.65;5.93;;;15.00;66.50;;;;;;3960091;29;20160;-52
2023/05/04 07:55:59;;;;;;;9.18;5.68;;;15.00;65.40;;;;;;3961830;29;20089;-61
2023/05/04 07:58:43;;;;;;;9.95;5.72;;;15.00;65.00;;;;;;3932071;29;20071;-60
2023/05/04 08:01:30;;;;;;;7.55;5.07;;;15.10;66.20;;;;;;3966023;29;20130;-60
2023/05/04 08:04:14;;;;;;;9.05;5.20;;;15.10;65.20;;;;;;3942009;29;20108;-60
2023/05/04 08:07:07;;;;;;;9.63;5.47;;;15.10;65.70;;;;;;3949775;29;20078;-57
2023/05/04 08:09:55;;;;;;;11.32;6.15;;;15.10;65.60;;;;;;3941501;29;20560;-59
2023/05/04 08:12:45;;;;;;;9.68;6.20;;;15.10;65.80;;;;;;3952979;29;20419;-59
2023/05/04 08:15:40;;;;;;;10.40;5.38;;;15.20;66.10;;;;;;3948475;29;20061;-59
2023/05/04 08:18:23;;;;;;;6.85;5.32;;;15.20;66.30;;;;;;3949749;29;20058;-51
2023/05/04 08:21:10;;;;;;;8.82;5.35;;;15.20;66.40;;;;;;3957107;29;20053;-50
2023/05/04 08:23:59;;;;;;;7.50;5.03;;;15.20;67.20;;;;;;3960056;29;20054;-59
2023/05/04 08:26:44;;;;;;;7.57;5.28;;;15.30;66.40;;;;;;3937417;29;20076;-49
2023/05/04 08:29:58;;;;;;;6.28;5.65;;;15.30;66.20;;;;;;3941009;29;20069;-49
2023/05/04 08:32:50;;;;;;;7.00;5.65;;;15.30;65.60;;;;;;3941588;29;20164;-59
2023/05/04 08:35:50;;;;;;;8.73;5.30;;;15.40;66.10;;;;;;3945216;29;20058;-59
2023/05/04 08:38:37;;;;;;;9.30;5.53;;;15.40;66.00;;;;;;3939329;29;20069;-58
2023/05/04 08:41:24;;;;;;;6.22;5.05;;;15.40;65.20;;;;;;3963570;29;20054;-59
2023/05/04 08:44:12;;;;;;;5.82;4.95;;;15.40;65.50;;;;;;3924620;29;20066;-49
2023/05/04 08:47:03;;;;;;;38.97;11.90;;;15.50;65.80;;;;;;3927552;29;21531;-48
2023/05/04 08:49:50;;;;;;;12.32;5.32;;;15.50;66.10;;;;;;3943197;29;20148;-54
2023/05/04 08:52:43;;;;;;;7.90;4.82;;;15.50;66.30;;;;;;3958178;29;20095;-51
2023/05/04 08:55:34;;;;;;;11.13;5.10;;;15.50;66.00;;;;;;3964465;29;20066;-62
2023/05/04 08:58:31;;;;;;;9.95;5.40;;;15.60;66.50;;;;;;3958641;29;20063;-60
2023/05/04 09:01:20;;;;;;;8.10;4.72;;;15.70;65.80;;;;;;3956445;29;20074;-53
2023/05/04 09:04:04;;;;;;;6.55;4.93;;;15.70;65.90;;;;;;3931683;29;20071;-53
2023/05/04 09:06:48;;;;;;;10.20;5.07;;;15.80;66.20;;;;;;3957267;29;20062;-50
2023/05/04 09:09:32;;;;;;;8.90;5.28;;;15.80;65.20;;;;;;3934337;29;20143;-52
2023/05/04 09:12:20;;;;;;;11.00;5.80;;;15.80;65.10;;;;;;3949736;29;20066;-53
2023/05/04 09:15:21;;;;;;;7.60;5.13;;;15.80;65.50;;;;;;3923687;29;20127;-51
2023/05/04 09:18:10;;;;;;;12.80;5.60;;;15.90;64.20;;;;;;3935718;29;20054;-54
2023/05/04 09:20:55;;;;;;;6.07;4.93;;;16.00;63.80;;;;;;3942305;29;20139;-51
2023/05/04 09:23:48;;;;;;;9.52;5.18;;;16.10;64.50;;;;;;3918549;30;20062;-52
2023/05/04 09:26:31;;;;;;;10.50;5.32;;;16.10;63.80;;;;;;3934709;29;20438;-52
2023/05/04 09:29:24;;;;;;;7.85;5.72;;;16.10;64.00;;;;;;3931759;29;20084;-52
2023/05/04 09:32:13;;;;;;;8.38;5.20;;;16.20;64.40;;;;;;3928572;30;20071;-49
2023/05/04 09:34:58;;;;;;;7.55;4.78;;;16.20;64.30;;;;;;3922854;29;20062;-57
2023/05/04 09:37:44;;;;;;;11.65;4.68;;;16.20;64.70;;;;;;3928520;30;20411;-55
2023/05/04 09:40:36;;;;;;;10.98;4.90;;;16.30;65.00;;;;;;3930269;30;20492;-56
2023/05/04 09:43:21;;;;;;;7.15;4.95;;;16.30;64.60;;;;;;3929998;30;20469;-63
2023/05/04 09:46:15;;;;;;;6.60;5.25;;;16.40;64.30;;;;;;3931831;29;20651;-63
2023/05/04 09:49:05;;;;;;;7.65;5.40;;;16.40;63.80;;;;;;3927607;29;20062;-62
2023/05/04 09:51:51;;;;;;;8.60;5.25;;;16.40;63.60;;;;;;3935401;29;20527;-58
2023/05/04 09:54:37;;;;;;;9.07;5.60;;;16.50;64.30;;;;;;3952320;29;20066;-60
2023/05/04 09:57:22;;;;;;;6.45;4.60;;;16.50;64.10;;;;;;3931032;30;20251;-60
2023/05/04 10:00:06;;;;;;;8.48;5.03;;;16.60;63.70;;;;;;3955569;29;20058;-60
2023/05/04 10:02:50;;;;;;;14.82;5.43;;;16.60;63.70;;;;;;3920988;29;20074;-58
2023/05/04 10:05:44;;;;;;;5.53;4.70;;;16.60;64.80;;;;;;3952376;29;20047;-60
2023/05/04 10:08:32;;;;;;;7.30;4.38;;;16.70;64.30;;;;;;3914028;29;20086;-61
2023/05/04 10:11:24;;;;;;;9.27;4.93;;;16.70;64.10;;;;;;3926386;29;20086;-59
2023/05/04 10:14:10;;;;;;;7.80;4.72;;;16.70;64.50;;;;;;3931806;30;20123;-60
2023/05/04 10:17:05;;;;;;;6.93;4.97;;;16.70;63.40;;;;;;3923840;29;20403;-59
2023/05/04 10:20:03;;;;;;;9.13;5.13;;;16.80;63.60;;;;;;3951487;29;20152;-59
2023/05/04 10:23:06;;;;;;;9.07;4.80;;;16.80;64.00;;;;;;3958135;29;20102;-60
2023/05/04 10:26:08;;;;;;;9.30;5.50;;;16.80;63.30;;;;;;3950476;29;20147;-60
2023/05/04 10:29:12;;;;;;;6.22;4.88;;;16.80;64.10;;;;;;3942444;29;20131;-58
2023/05/04 10:31:58;;;;;;;5.75;4.50;;;16.90;63.80;;;;;;3945793;29;20066;-60
2023/05/04 10:34:41;;;;;;;9.48;5.22;;;16.90;63.60;;;;;;3947708;29;20061;-60
2023/05/04 10:37:33;;;;;;;7.18;4.72;;;17.00;63.60;;;;;;3952340;29;20066;-61
2023/05/04 10:40:16;;;;;;;6.38;4.82;;;17.00;63.00;;;;;;3962717;29;20414;-60
2023/05/04 10:43:09;;;;;;;6.43;4.00;;;17.00;63.30;;;;;;3958358;29;20079;-60
2023/05/04 10:46:00;;;;;;;8.68;4.50;;;17.00;62.80;;;;;;3961669;29;20533;-60
2023/05/04 10:48:41;;;;;;;5.85;4.43;;;17.00;63.10;;;;;;3938535;29;20058;-61
2023/05/04 10:51:29;;;;;;;5.40;4.38;;;17.10;63.10;;;;;;3954955;29;20070;-60
2023/05/04 10:54:25;;;;;;;6.60;4.90;;;17.10;63.00;;;;;;3958997;29;20057;-61
2023/05/04 10:57:09;;;;;;;8.43;5.25;;;17.10;63.10;;;;;;3968800;29;20176;-60
2023/05/04 11:00:00;;;;;;;8.27;5.05;;;17.10;62.90;;;;;;3940005;29;20083;-60
2023/05/04 11:03:03;;;;;;;7.43;5.18;;;17.10;62.80;;;;;;3958339;29;20062;-60
2023/05/04 11:05:50;;;;;;;10.18;5.15;;;17.20;62.30;;;;;;3967133;29;20085;-60
2023/05/04 11:08:33;;;;;;;6.10;4.47;;;17.20;62.40;;;;;;3968234;29;20184;-54
2023/05/04 11:11:17;;;;;;;5.63;4.75;;;17.20;61.90;;;;;;3944948;29;20108;-61
2023/05/04 11:14:09;;;;;;;7.65;5.53;;;17.20;62.50;;;;;;3948828;29;20057;-61
2023/05/04 11:16:51;;;;;;;8.73;4.95;;;17.20;63.20;;;;;;3946703;29;20169;-60
2023/05/04 11:19:37;;;;;;;7.18;4.95;;;17.30;62.90;;;;;;3947423;29;20054;-61
2023/05/04 11:22:19;;;;;;;8.63;4.95;;;17.30;63.30;;;;;;3948206;29;20099;-58
2023/05/04 11:25:03;;;;;;;5.40;4.78;;;17.40;63.10;;;;;;3942100;29;20078;-59
2023/05/04 11:27:49;;;;;;;8.77;4.10;;;17.30;63.00;;;;;;3936325;29;20063;-59
2023/05/04 11:30:35;;;;;;;5.60;4.45;;;17.40;62.80;;;;;;3938479;29;20061;-59
2023/05/04 11:33:18;;;;;;;10.65;5.13;;;17.40;61.90;;;;;;3938731;29;20120;-60
2023/05/04 11:36:06;;;;;;;7.10;4.63;;;17.40;62.40;;;;;;3933086;29;20498;-58
2023/05/04 11:38:49;;;;;;;5.47;4.78;;;17.40;61.70;;;;;;3928821;29;20066;-60
2023/05/04 11:41:42;;;;;;;6.07;4.45;;;17.50;61.80;;;;;;3923461;29;20120;-59
2023/05/04 11:44:33;;;;;;;7.47;4.47;;;17.50;61.70;;;;;;3927714;29;20198;-59
2023/05/04 11:47:18;;;;;;;9.02;5.68;;;17.50;61.30;;;;;;3925221;29;20385;-59
2023/05/04 11:50:06;;;;;;;8.98;4.85;;;17.60;61.70;;;;;;3916051;29;20503;-58
2023/05/04 11:52:49;;;;;;;5.60;5.00;;;17.60;61.20;;;;;;3948164;29;20058;-52
2023/05/04 11:55:33;;;;;;;5.20;4.70;;;17.60;61.20;;;;;;3956202;29;20061;-58
2023/05/04 11:58:16;;;;;;;10.82;5.53;;;17.70;60.90;;;;;;3963039;29;20135;-54
2023/05/04 12:01:07;;;;;;;6.55;5.25;;;17.70;61.20;;;;;;3939265;29;20131;-54
2023/05/04 12:03:55;;;;;;;6.45;5.07;;;17.70;61.50;;;;;;3938482;29;20066;-55
2023/05/04 12:06:39;;;;;;;10.30;5.38;;;17.70;61.70;;;;;;3931558;29;20066;-53
2023/05/04 12:09:22;;;;;;;6.60;4.90;;;17.80;62.40;;;;;;3951621;29;20081;-54
2023/05/04 12:12:06;;;;;;;8.40;4.90;;;17.80;61.80;;;;;;3953568;29;20423;-52
2023/05/04 12:14:52;;;;;;;6.43;4.70;;;17.80;61.20;;;;;;3944420;29;20147;-53
2023/05/04 12:17:44;;;;;;;7.43;4.63;;;17.80;61.60;;;;;;3944782;29;20143;-56
2023/05/04 12:20:30;;;;;;;7.43;4.82;;;17.80;61.90;;;;;;3958008;29;20105;-54
2023/05/04 12:23:30;;;;;;;5.47;4.45;;;17.80;62.20;;;;;;3964049;29;20049;-54
2023/05/04 12:26:17;;;;;;;6.18;4.35;;;17.80;61.00;;;;;;3965751;29;20087;-53
2023/05/04 12:29:04;;;;;;;7.65;4.72;;;17.80;61.20;;;;;;3953144;29;20076;-54
2023/05/04 12:31:48;;;;;;;8.88;4.75;;;17.90;61.00;;;;;;3957776;29;20085;-54
2023/05/04 12:34:32;;;;;;;8.30;4.97;;;17.90;59.90;;;;;;3929117;29;20059;-54
2023/05/04 12:37:14;;;;;;;8.80;4.60;;;17.80;59.80;;;;;;3950990;29;20136;-54
2023/05/04 12:40:00;;;;;;;6.55;4.72;;;17.90;60.00;;;;;;3956853;29;20589;-52
2023/05/04 12:42:50;;;;;;;5.90;4.32;;;17.80;59.90;;;;;;3947108;29;20089;-55
2023/05/04 12:45:32;;;;;;;7.63;4.60;;;17.80;59.40;;;;;;3944366;29;20636;-55
2023/05/04 12:48:20;;;;;;;6.15;4.05;;;17.90;59.60;;;;;;3964836;29;20061;-55
2023/05/04 12:51:06;;;;;;;5.40;4.90;;;17.90;59.30;;;;;;3965628;29;20064;-54
2023/05/04 12:53:50;;;;;;;7.15;4.80;;;17.90;59.20;;;;;;3940920;29;20434;-52
2023/05/04 12:56:36;;;;;;;7.05;4.57;;;17.90;59.20;;;;;;3955654;29;20123;-53
2023/05/04 12:59:24;;;;;;;7.05;4.20;;;17.90;58.80;;;;;;3969973;29;20070;-55
2023/05/04 13:02:10;;;;;;;5.05;3.90;;;17.90;58.80;;;;;;3929507;29;20644;-57
2023/05/04 13:04:55;;;;;;;6.82;3.70;;;17.90;58.30;;;;;;3962914;29;20066;-55
2023/05/04 13:07:42;;;;;;;6.28;4.15;;;17.90;58.70;;;;;;3964601;29;20073;-53
2023/05/04 13:10:25;;;;;;;5.50;4.38;;;17.90;58.50;;;;;;3962584;29;20143;-55
2023/05/04 13:13:08;;;;;;;5.45;4.03;;;18.00;58.40;;;;;;3950447;29;20066;-55
2023/05/04 13:15:53;;;;;;;8.93;5.00;;;18.00;58.30;;;;;;3947586;29;20530;-55
2023/05/04 13:18:42;;;;;;;6.35;3.95;;;18.00;58.40;;;;;;3953502;29;20572;-56
2023/05/04 13:21:24;;;;;;;5.43;3.55;;;18.00;58.30;;;;;;3921650;29;20059;-55
2023/05/04 13:24:10;;;;;;;8.07;4.50;;;18.10;58.10;;;;;;3955861;29;20215;-56
2023/05/04 13:26:57;;;;;;;6.22;4.45;;;18.00;58.70;;;;;;3955081;29;20164;-56
2023/05/04 13:29:42;;;;;;;5.75;4.00;;;18.10;57.90;;;;;;3952711;29;20087;-55
2023/05/04 13:32:27;;;;;;;5.03;4.15;;;18.10;57.90;;;;;;3954286;29;20061;-53
2023/05/04 13:35:20;;;;;;;5.55;3.90;;;18.20;57.80;;;;;;3955337;29;20062;-55
2023/05/04 13:38:04;;;;;;;7.22;4.10;;;18.20;57.70;;;;;;3937301;29;20062;-55
2023/05/04 13:40:51;;;;;;;10.07;4.53;;;18.20;57.30;;;;;;3910329;29;20075;-55
2023/05/04 13:43:37;;;;;;;4.57;3.88;;;18.20;57.40;;;;;;3937749;29;20110;-54
2023/05/04 13:46:23;;;;;;;6.40;4.07;;;18.20;56.90;;;;;;3932099;29;20153;-55
2023/05/04 13:49:12;;;;;;;4.18;3.72;;;18.20;56.90;;;;;;3940275;29;20103;-56
2023/05/04 13:52:00;;;;;;;6.95;3.65;;;18.20;56.50;;;;;;3950001;29;20066;-54
2023/05/04 13:54:48;;;;;;;6.18;4.20;;;18.30;56.80;;;;;;3954372;29;20077;-55
2023/05/04 13:57:39;;;;;;;5.15;4.22;;;18.30;56.60;;;;;;3932968;29;20598;-54
2023/05/04 14:00:22;;;;;;;7.55;4.45;;;18.30;56.60;;;;;;3943925;29;20058;-55
2023/05/04 14:03:09;;;;;;;8.32;3.85;;;18.30;56.20;;;;;;3942325;29;20058;-52
2023/05/04 14:06:04;;;;;;;5.07;4.15;;;18.40;56.40;;;;;;3936153;29;20058;-54
2023/05/04 14:08:47;;;;;;;5.07;3.72;;;18.40;56.40;;;;;;3934074;29;20514;-54
2023/05/04 14:11:38;;;;;;;4.60;4.10;;;18.40;56.20;;;;;;3956476;29;20200;-55
2023/05/04 14:14:22;;;;;;;8.98;3.85;;;18.40;55.90;;;;;;3954996;29;20070;-52
2023/05/04 14:17:12;;;;;;;9.20;4.72;;;18.40;55.90;;;;;;3931991;29;20163;-55
2023/05/04 14:19:57;;;;;;;6.75;3.67;;;18.40;55.80;;;;;;3930739;29;20095;-54
2023/05/04 14:22:43;;;;;;;4.85;3.63;;;18.40;56.60;;;;;;3904320;30;20136;-53
2023/05/04 14:25:37;;;;;;;9.48;4.30;;;18.50;55.80;;;;;;3908699;30;20062;-56
2023/05/04 14:28:31;;;;;;;5.55;3.67;;;18.50;55.60;;;;;;3923968;29;20062;-56